createdAt,value
2019-04-30T00:00:57.708Z,7.46
2019-04-30T00:01:58.934Z,7.46
2019-04-30T00:02:57.666Z,7.57
2019-04-30T00:03:59.331Z,7.46
2019-04-30T00:04:57.624Z,7.48
2019-04-30T00:05:57.660Z,7.50
2019-04-30T00:06:57.578Z,7.53
2019-04-30T00:07:58.732Z,7.53
2019-04-30T00:08:57.816Z,7.49
2019-04-30T00:09:57.753Z,7.49
2019-04-30T00:10:57.494Z,7.50
2019-04-30T00:12:01.056Z,7.46
2019-04-30T00:12:57.456Z,7.40
2019-04-30T00:13:59.010Z,7.49
2019-04-30T00:14:57.414Z,7.40
2019-04-30T00:16:00.327Z,7.35
2019-04-30T00:16:57.370Z,7.37
2019-04-30T00:18:01.578Z,7.35
2019-04-30T00:19:00.477Z,7.40
2019-04-30T00:19:59.863Z,7.39
2019-04-30T00:20:57.293Z,7.32
2019-04-30T00:22:00.295Z,7.30
2019-04-30T00:22:57.248Z,7.30
2019-04-30T00:24:00.950Z,7.35
2019-04-30T00:24:57.208Z,7.32
2019-04-30T00:25:58.418Z,7.34
2019-04-30T00:26:57.171Z,7.28
2019-04-30T00:28:00.347Z,7.35
2019-04-30T00:28:57.127Z,7.32
2019-04-30T00:30:00.237Z,7.32
2019-04-30T00:30:57.086Z,7.40
2019-04-30T00:32:03.904Z,7.30
2019-04-30T00:32:57.042Z,7.25
2019-04-30T00:34:01.141Z,7.25
2019-04-30T00:34:57.730Z,7.20
2019-04-30T00:35:58.044Z,7.28
2019-04-30T00:36:56.959Z,7.25
2019-04-30T00:38:00.119Z,7.24
2019-04-30T00:38:56.915Z,7.17
2019-04-30T00:39:56.897Z,7.13
2019-04-30T00:40:57.713Z,7.12
2019-04-30T00:41:56.885Z,7.06
2019-04-30T00:43:00.265Z,7.13
2019-04-30T00:43:57.422Z,7.09
2019-04-30T00:44:59.682Z,7.10
2019-04-30T00:45:56.769Z,7.10
2019-04-30T00:47:00.616Z,7.09
2019-04-30T00:47:56.736Z,7.07
2019-04-30T00:49:08.547Z,7.09
2019-04-30T00:50:00.215Z,7.12
2019-04-30T00:50:56.667Z,7.07
2019-04-30T00:51:58.173Z,7.03
2019-04-30T00:52:57.884Z,7.09
2019-04-30T00:53:56.605Z,7.05
2019-04-30T00:55:00.335Z,7.07
2019-04-30T00:55:57.355Z,6.98
2019-04-30T00:56:59.360Z,7.05
2019-04-30T00:57:56.522Z,7.05
2019-04-30T00:58:57.755Z,6.97
2019-04-30T00:59:56.481Z,7.02
2019-04-30T01:00:59.812Z,6.99
2019-04-30T01:01:56.442Z,6.97
2019-04-30T01:02:56.417Z,6.95
2019-04-30T01:03:56.400Z,6.97
2019-04-30T01:05:00.153Z,6.95
2019-04-30T01:05:56.357Z,7.02
2019-04-30T01:07:00.319Z,6.94
2019-04-30T01:07:56.311Z,6.97
2019-04-30T01:08:58.244Z,7.05
2019-04-30T01:09:56.274Z,6.95
2019-04-30T01:10:59.811Z,6.99
2019-04-30T01:11:56.233Z,6.98
2019-04-30T01:13:01.836Z,6.95
2019-04-30T01:13:56.187Z,6.89
2019-04-30T01:14:56.168Z,6.87
2019-04-30T01:15:56.150Z,6.94
2019-04-30T01:16:56.123Z,6.97
2019-04-30T01:17:56.101Z,6.88
2019-04-30T01:18:56.081Z,6.88
2019-04-30T01:19:56.062Z,6.84
2019-04-30T01:20:56.042Z,6.91
2019-04-30T01:21:56.020Z,6.88
2019-04-30T01:22:55.997Z,6.88
2019-04-30T01:23:55.975Z,6.85
2019-04-30T01:24:55.976Z,6.91
2019-04-30T01:25:55.935Z,6.77
2019-04-30T01:27:02.120Z,6.88
2019-04-30T01:27:55.892Z,6.85
2019-04-30T01:28:58.529Z,6.85
2019-04-30T01:29:55.851Z,6.89
2019-04-30T01:30:58.809Z,6.87
2019-04-30T01:31:55.813Z,6.80
2019-04-30T01:32:56.960Z,6.76
2019-04-30T01:33:55.770Z,6.77
2019-04-30T01:34:55.746Z,6.77
2019-04-30T01:35:55.722Z,6.69
2019-04-30T01:36:55.706Z,6.62
2019-04-30T01:37:55.682Z,6.61
2019-04-30T01:38:55.660Z,6.56
2019-04-30T01:39:55.638Z,6.69
2019-04-30T01:40:55.619Z,6.61
2019-04-30T01:41:55.598Z,6.59
2019-04-30T01:42:55.580Z,6.64
2019-04-30T01:43:55.557Z,6.58
2019-04-30T01:44:55.544Z,6.66
2019-04-30T01:45:55.520Z,6.62
2019-04-30T01:46:55.494Z,6.54
2019-04-30T01:48:00.610Z,6.58
2019-04-30T01:48:55.450Z,6.64
2019-04-30T01:49:55.861Z,6.67
2019-04-30T01:50:55.414Z,6.69
2019-04-30T01:51:57.447Z,6.55
2019-04-30T01:52:55.370Z,6.59
2019-04-30T01:53:55.348Z,6.67
2019-04-30T01:54:55.340Z,6.62
2019-04-30T01:55:55.306Z,6.59
2019-04-30T01:56:55.285Z,6.62
2019-04-30T01:57:55.270Z,6.56
2019-04-30T01:58:55.244Z,6.58
2019-04-30T01:59:55.218Z,6.56
2019-04-30T02:00:55.200Z,6.58
2019-04-30T02:01:55.182Z,6.52
2019-04-30T02:02:55.158Z,6.56
2019-04-30T02:03:55.132Z,6.52
2019-04-30T02:04:55.115Z,6.48
2019-04-30T02:05:55.094Z,6.59
2019-04-30T02:06:55.075Z,6.56
2019-04-30T02:07:55.052Z,6.51
2019-04-30T02:08:55.028Z,6.55
2019-04-30T02:09:55.007Z,6.55
2019-04-30T02:10:54.987Z,6.59
2019-04-30T02:11:54.967Z,6.54
2019-04-30T02:12:54.944Z,6.52
2019-04-30T02:13:54.926Z,6.41
2019-04-30T02:14:54.900Z,6.56
2019-04-30T02:15:54.882Z,6.59
2019-04-30T02:16:54.866Z,6.48
2019-04-30T02:17:54.839Z,6.56
2019-04-30T02:18:54.817Z,6.48
2019-04-30T02:19:56.910Z,6.41
2019-04-30T02:20:54.776Z,6.43
2019-04-30T02:21:54.757Z,6.43
2019-04-30T02:22:54.734Z,6.40
2019-04-30T02:23:54.714Z,6.41
2019-04-30T02:24:54.691Z,6.49
2019-04-30T02:25:54.673Z,6.44
2019-04-30T02:26:54.649Z,6.36
2019-04-30T02:27:54.632Z,6.34
2019-04-30T02:28:54.609Z,6.41
2019-04-30T02:29:54.589Z,6.31
2019-04-30T02:30:54.563Z,6.38
2019-04-30T02:31:54.542Z,6.38
2019-04-30T02:32:54.522Z,6.36
2019-04-30T02:33:54.504Z,6.36
2019-04-30T02:34:54.480Z,6.36
2019-04-30T02:35:54.470Z,6.34
2019-04-30T02:36:54.435Z,6.27
2019-04-30T02:37:54.415Z,6.34
2019-04-30T02:38:54.397Z,6.30
2019-04-30T02:39:54.382Z,6.40
2019-04-30T02:40:54.352Z,6.36
2019-04-30T02:41:54.336Z,6.31
2019-04-30T02:42:57.746Z,6.21
2019-04-30T02:43:54.293Z,6.28
2019-04-30T02:44:54.266Z,6.27
2019-04-30T02:45:54.248Z,6.22
2019-04-30T02:46:54.225Z,6.27
2019-04-30T02:47:54.203Z,6.27
2019-04-30T02:48:54.186Z,6.15
2019-04-30T02:50:10.203Z,6.19
2019-04-30T02:50:54.139Z,6.19
2019-04-30T02:51:54.115Z,6.12
2019-04-30T02:52:54.099Z,6.18
2019-04-30T02:53:54.077Z,6.14
2019-04-30T02:54:54.051Z,6.19
2019-04-30T02:55:54.033Z,6.17
2019-04-30T02:56:54.010Z,6.12
2019-04-30T02:57:54.046Z,6.18
2019-04-30T02:58:53.969Z,6.21
2019-04-30T02:59:53.945Z,6.18
2019-04-30T03:00:53.927Z,6.08
2019-04-30T03:01:53.905Z,6.04
2019-04-30T03:02:53.881Z,6.04
2019-04-30T03:03:53.863Z,6.11
2019-04-30T03:04:53.842Z,6.04
2019-04-30T03:05:53.825Z,6.03
2019-04-30T03:06:54.406Z,6.04
2019-04-30T03:07:53.777Z,5.99
2019-04-30T03:08:53.756Z,6.08
2019-04-30T03:09:53.739Z,6.06
2019-04-30T03:10:53.717Z,6.12
2019-04-30T03:11:53.702Z,6.09
2019-04-30T03:12:53.676Z,6.08
2019-04-30T03:13:53.646Z,6.09
2019-04-30T03:14:53.624Z,6.11
2019-04-30T03:15:53.610Z,6.06
2019-04-30T03:16:53.588Z,6.04
2019-04-30T03:17:53.566Z,6.09
2019-04-30T03:18:53.564Z,6.04
2019-04-30T03:19:53.528Z,6.03
2019-04-30T03:20:53.507Z,6.00
2019-04-30T03:21:53.479Z,6.03
2019-04-30T03:22:53.457Z,6.00
2019-04-30T03:23:53.439Z,5.99
2019-04-30T03:24:53.416Z,6.00
2019-04-30T03:25:53.388Z,5.99
2019-04-30T03:26:53.369Z,6.03
2019-04-30T03:27:53.356Z,5.94
2019-04-30T03:28:53.339Z,6.01
2019-04-30T03:29:53.304Z,6.04
2019-04-30T03:30:57.464Z,6.04
2019-04-30T03:31:53.379Z,6.03
2019-04-30T03:32:56.929Z,6.03
2019-04-30T03:33:53.228Z,6.03
2019-04-30T03:34:53.197Z,5.97
2019-04-30T03:35:54.561Z,6.04
2019-04-30T03:36:53.153Z,6.01
2019-04-30T03:37:53.143Z,6.00
2019-04-30T03:38:53.108Z,6.04
2019-04-30T03:39:53.089Z,5.91
2019-04-30T03:40:53.076Z,6.04
2019-04-30T03:41:53.052Z,6.00
2019-04-30T03:42:53.020Z,5.90
2019-04-30T03:43:53.011Z,5.99
2019-04-30T03:44:52.990Z,5.91
2019-04-30T03:45:52.959Z,5.90
2019-04-30T03:46:52.939Z,5.94
2019-04-30T03:47:52.918Z,5.99
2019-04-30T03:48:52.900Z,5.94
2019-04-30T03:49:52.874Z,5.83
2019-04-30T03:50:56.790Z,6.00
2019-04-30T03:51:52.829Z,5.91
2019-04-30T03:52:52.806Z,6.04
2019-04-30T03:53:52.791Z,5.96
2019-04-30T03:54:52.767Z,6.00
2019-04-30T03:55:52.744Z,5.90
2019-04-30T03:56:52.729Z,5.93
2019-04-30T03:57:52.698Z,5.83
2019-04-30T03:58:52.676Z,5.89
2019-04-30T03:59:52.663Z,5.91
2019-04-30T04:00:52.638Z,5.83
2019-04-30T04:01:52.616Z,5.94
2019-04-30T04:02:52.595Z,5.91
2019-04-30T04:03:52.577Z,5.83
2019-04-30T04:04:52.891Z,5.79
2019-04-30T04:05:52.536Z,5.83
2019-04-30T04:06:52.510Z,5.85
2019-04-30T04:07:53.040Z,5.82
2019-04-30T04:08:52.465Z,5.90
2019-04-30T04:09:52.448Z,5.78
2019-04-30T04:10:53.087Z,5.83
2019-04-30T04:11:52.399Z,5.94
2019-04-30T04:12:52.380Z,5.94
2019-04-30T04:13:52.359Z,5.91
2019-04-30T04:14:52.339Z,5.90
2019-04-30T04:15:52.317Z,5.81
2019-04-30T04:16:52.328Z,5.85
2019-04-30T04:17:52.275Z,5.93
2019-04-30T04:18:52.255Z,5.85
2019-04-30T04:19:52.239Z,5.94
2019-04-30T04:21:07.093Z,5.86
2019-04-30T04:21:52.188Z,5.89
2019-04-30T04:22:52.167Z,5.91
2019-04-30T04:23:52.146Z,5.89
2019-04-30T04:24:52.124Z,5.86
2019-04-30T04:25:52.104Z,5.83
2019-04-30T04:26:52.123Z,5.82
2019-04-30T04:27:52.068Z,5.94
2019-04-30T04:28:52.038Z,5.85
2019-04-30T04:29:52.014Z,5.94
2019-04-30T04:30:51.999Z,5.94
2019-04-30T04:31:51.978Z,5.93
2019-04-30T04:32:51.963Z,5.91
2019-04-30T04:33:52.768Z,5.93
2019-04-30T04:34:51.909Z,5.94
2019-04-30T04:35:51.888Z,5.91
2019-04-30T04:36:51.868Z,5.90
2019-04-30T04:37:51.842Z,5.90
2019-04-30T04:38:51.822Z,5.90
2019-04-30T04:39:51.817Z,5.93
2019-04-30T04:40:51.778Z,5.97
2019-04-30T04:41:51.758Z,5.99
2019-04-30T04:42:51.735Z,6.00
2019-04-30T04:43:51.719Z,6.06
2019-04-30T04:44:51.691Z,6.03
2019-04-30T04:45:51.667Z,5.94
2019-04-30T04:46:51.654Z,6.06
2019-04-30T04:47:51.625Z,6.04
2019-04-30T04:48:51.605Z,6.09
2019-04-30T04:49:53.911Z,6.06
2019-04-30T04:50:51.578Z,6.11
2019-04-30T04:51:51.545Z,6.12
2019-04-30T04:52:51.522Z,6.17
2019-04-30T04:53:51.496Z,6.19
2019-04-30T04:54:51.482Z,6.19
2019-04-30T04:55:51.456Z,6.18
2019-04-30T04:56:54.823Z,6.30
2019-04-30T04:57:51.414Z,6.28
2019-04-30T04:58:51.389Z,6.28
2019-04-30T04:59:51.368Z,6.25
2019-04-30T05:00:51.350Z,6.34
2019-04-30T05:01:51.328Z,6.34
2019-04-30T05:02:51.307Z,6.33
2019-04-30T05:03:51.287Z,6.36
2019-04-30T05:04:51.260Z,6.37
2019-04-30T05:05:51.247Z,6.33
2019-04-30T05:06:51.222Z,6.46
2019-04-30T05:07:51.196Z,6.38
2019-04-30T05:08:51.177Z,6.37
2019-04-30T05:09:51.193Z,6.46
2019-04-30T05:10:51.141Z,6.51
2019-04-30T05:11:51.146Z,6.51
2019-04-30T05:12:51.181Z,6.54
2019-04-30T05:13:51.069Z,6.43
2019-04-30T05:14:51.051Z,6.59
2019-04-30T05:15:51.524Z,6.56
2019-04-30T05:16:51.003Z,6.56
2019-04-30T05:17:50.979Z,6.58
2019-04-30T05:18:50.959Z,6.64
2019-04-30T05:19:50.945Z,6.70
2019-04-30T05:20:50.916Z,6.71
2019-04-30T05:21:51.724Z,6.77
2019-04-30T05:22:50.877Z,6.81
2019-04-30T05:23:50.853Z,6.89
2019-04-30T05:24:50.835Z,6.87
2019-04-30T05:25:50.811Z,6.87
2019-04-30T05:26:50.789Z,6.87
2019-04-30T05:27:50.770Z,6.94
2019-04-30T05:28:52.776Z,7.02
2019-04-30T05:29:50.723Z,6.98
2019-04-30T05:30:50.703Z,7.06
2019-04-30T05:31:50.681Z,7.13
2019-04-30T05:32:50.928Z,7.06
2019-04-30T05:33:50.643Z,7.12
2019-04-30T05:34:50.615Z,7.24
2019-04-30T05:35:50.600Z,7.24
2019-04-30T05:36:50.575Z,7.27
2019-04-30T05:37:50.555Z,7.25
2019-04-30T05:38:50.534Z,7.37
2019-04-30T05:39:50.509Z,7.42
2019-04-30T05:40:50.501Z,7.55
2019-04-30T05:41:50.469Z,7.52
2019-04-30T05:42:50.448Z,7.55
2019-04-30T05:43:50.437Z,7.53
2019-04-30T05:44:50.409Z,7.48
2019-04-30T05:45:50.384Z,7.68
2019-04-30T05:46:50.379Z,7.71
2019-04-30T05:47:50.676Z,7.72
2019-04-30T05:48:50.324Z,7.68
2019-04-30T05:49:50.299Z,7.83
2019-04-30T05:50:51.792Z,7.83
2019-04-30T05:51:55.604Z,7.90
2019-04-30T05:52:50.236Z,8.02
2019-04-30T05:53:50.210Z,8.04
2019-04-30T05:54:50.196Z,7.98
2019-04-30T05:55:50.170Z,8.10
2019-04-30T05:56:50.146Z,8.20
2019-04-30T05:57:55.971Z,8.23
2019-04-30T05:58:50.109Z,8.28
2019-04-30T05:59:50.089Z,8.25
2019-04-30T06:00:50.118Z,8.38
2019-04-30T06:01:50.797Z,8.40
2019-04-30T06:02:50.029Z,8.48
2019-04-30T06:03:50.006Z,8.58
2019-04-30T06:04:49.980Z,8.59
2019-04-30T06:05:49.958Z,8.70
2019-04-30T06:06:49.946Z,8.71
2019-04-30T06:07:52.057Z,8.80
2019-04-30T06:08:49.899Z,8.77
2019-04-30T06:09:49.879Z,8.83
2019-04-30T06:10:51.809Z,8.94
2019-04-30T06:11:49.838Z,8.94
2019-04-30T06:12:49.812Z,8.99
2019-04-30T06:13:49.794Z,9.14
2019-04-30T06:14:51.797Z,9.15
2019-04-30T06:15:49.752Z,9.20
2019-04-30T06:16:51.742Z,9.32
2019-04-30T06:17:59.981Z,9.35
2019-04-30T06:18:49.695Z,9.33
2019-04-30T06:19:51.576Z,9.43
2019-04-30T06:20:49.652Z,9.50
2019-04-30T06:21:49.629Z,9.53
2019-04-30T06:22:52.095Z,9.54
2019-04-30T06:23:49.588Z,9.66
2019-04-30T06:24:49.621Z,9.74
2019-04-30T06:25:57.367Z,9.76
2019-04-30T06:26:49.528Z,9.81
2019-04-30T06:27:49.507Z,9.76
2019-04-30T06:28:49.744Z,9.90
2019-04-30T06:29:49.462Z,9.97
2019-04-30T06:30:49.446Z,10.04
2019-04-30T06:31:49.425Z,10.11
2019-04-30T06:32:49.697Z,10.18
2019-04-30T06:33:49.383Z,10.20
2019-04-30T06:34:49.956Z,10.23
2019-04-30T06:35:49.418Z,10.29
2019-04-30T06:36:53.354Z,10.26
2019-04-30T06:37:49.299Z,10.33
2019-04-30T06:38:49.282Z,10.44
2019-04-30T06:39:50.102Z,10.52
2019-04-30T06:40:49.241Z,10.52
2019-04-30T06:41:49.410Z,10.60
2019-04-30T06:42:49.651Z,10.56
2019-04-30T06:43:49.179Z,10.66
2019-04-30T06:44:49.517Z,10.70
2019-04-30T06:45:51.254Z,10.86
2019-04-30T06:46:49.125Z,10.86
2019-04-30T06:47:49.141Z,10.89
2019-04-30T06:48:50.886Z,11.00
2019-04-30T06:49:49.063Z,11.06
2019-04-30T06:50:49.352Z,11.14
2019-04-30T06:51:49.300Z,11.18
2019-04-30T06:52:56.830Z,11.27
2019-04-30T06:53:51.244Z,11.29
2019-04-30T06:54:49.840Z,11.44
2019-04-30T06:55:49.330Z,11.44
2019-04-30T06:56:48.926Z,11.61
2019-04-30T06:57:49.654Z,11.61
2019-04-30T06:58:49.374Z,11.76
2019-04-30T06:59:51.378Z,11.78
2019-04-30T07:00:49.660Z,11.95
2019-04-30T07:01:49.020Z,12.17
2019-04-30T07:02:49.469Z,12.45
2019-04-30T07:03:48.851Z,12.77
2019-04-30T07:04:49.310Z,13.26
2019-04-30T07:05:48.960Z,13.73
2019-04-30T07:06:50.467Z,14.22
2019-04-30T07:07:48.896Z,14.91
2019-04-30T07:08:55.766Z,15.41
2019-04-30T07:09:53.149Z,15.74
2019-04-30T07:10:55.704Z,16.12
2019-04-30T07:11:49.400Z,16.56
2019-04-30T07:12:49.128Z,16.68
2019-04-30T07:13:51.785Z,16.79
2019-04-30T07:14:49.454Z,16.86
2019-04-30T07:15:49.048Z,17.03
2019-04-30T07:16:49.463Z,17.21
2019-04-30T07:17:49.187Z,17.23
2019-04-30T07:18:48.996Z,17.26
2019-04-30T07:19:54.233Z,17.07
2019-04-30T07:20:48.758Z,16.83
2019-04-30T07:21:49.598Z,16.82
2019-04-30T07:23:48.612Z,16.48
2019-04-30T07:24:49.656Z,16.58
2019-04-30T07:25:51.403Z,16.56
2019-04-30T07:26:48.950Z,16.61
2019-04-30T07:27:50.476Z,16.66
2019-04-30T07:28:54.222Z,16.70
2019-04-30T07:29:49.531Z,16.71
2019-04-30T07:30:51.225Z,16.79
2019-04-30T07:31:49.027Z,16.75
2019-04-30T07:32:48.810Z,16.75
2019-04-30T07:33:53.019Z,16.83
2019-04-30T07:34:49.546Z,16.75
2019-04-30T07:35:49.797Z,16.73
2019-04-30T07:36:55.155Z,16.81
2019-04-30T07:37:49.768Z,16.89
2019-04-30T07:38:54.522Z,16.96
2019-04-30T07:39:49.351Z,16.94
2019-04-30T07:40:49.341Z,16.97
2019-04-30T07:41:49.441Z,17.00
2019-04-30T07:42:49.240Z,17.11
2019-04-30T07:43:49.409Z,17.16
2019-04-30T07:44:50.236Z,17.30
2019-04-30T07:45:49.589Z,17.41
2019-04-30T07:46:49.330Z,17.62
2019-04-30T07:47:49.511Z,17.68
2019-04-30T07:48:50.083Z,17.97
2019-04-30T07:49:52.939Z,18.12
2019-04-30T07:50:51.906Z,18.29
2019-04-30T07:51:51.317Z,18.44
2019-04-30T07:53:01.620Z,18.73
2019-04-30T07:53:49.628Z,18.88
2019-04-30T07:54:51.584Z,18.81
2019-04-30T07:55:49.416Z,19.02
2019-04-30T07:56:50.699Z,18.95
2019-04-30T07:57:50.624Z,19.18
2019-04-30T07:58:50.271Z,19.31
2019-04-30T07:59:49.878Z,19.61
2019-04-30T08:00:50.331Z,19.78
2019-04-30T08:02:03.296Z,20.03
2019-04-30T08:02:50.464Z,20.32
2019-04-30T08:03:50.007Z,20.50
2019-04-30T08:04:47.893Z,20.91
2019-04-30T08:05:49.862Z,20.80
2019-04-30T08:06:49.905Z,20.92
2019-04-30T08:07:48.961Z,20.98
2019-04-30T08:08:50.110Z,21.13
2019-04-30T08:09:34.154Z,16.64
2019-04-30T08:09:49.308Z,21.25
2019-04-30T08:10:50.789Z,21.40
2019-04-30T08:11:49.147Z,21.52
2019-04-30T08:12:50.454Z,21.68
2019-04-30T08:13:49.518Z,21.83
2019-04-30T08:14:49.615Z,21.99
2019-04-30T08:15:49.551Z,22.22
2019-04-30T08:16:48.424Z,22.54
2019-04-30T08:18:02.233Z,22.77
2019-04-30T08:18:49.228Z,23.01
2019-04-30T08:19:48.951Z,22.97
2019-04-30T08:20:49.007Z,23.07
2019-04-30T08:21:48.601Z,23.28
2019-04-30T08:22:49.426Z,23.63
2019-04-30T08:23:48.931Z,23.93
2019-04-30T08:24:49.161Z,24.13
2019-04-30T08:25:48.833Z,24.34
2019-04-30T08:26:49.400Z,24.55
2019-04-30T08:27:49.263Z,24.52
2019-04-30T08:28:48.768Z,24.49
2019-04-30T08:29:49.906Z,24.22
2019-04-30T08:30:48.975Z,24.02
2019-04-30T08:31:48.972Z,24.08
2019-04-30T08:32:49.769Z,23.98
2019-04-30T08:33:49.074Z,24.05
2019-04-30T08:34:49.966Z,23.94
2019-04-30T08:35:49.721Z,23.87
2019-04-30T08:36:48.936Z,23.83
2019-04-30T08:37:49.523Z,23.83
2019-04-30T08:38:49.462Z,24.00
2019-04-30T08:39:49.505Z,24.10
2019-04-30T08:40:56.154Z,24.18
2019-04-30T08:41:49.299Z,24.31
2019-04-30T08:42:49.581Z,24.45
2019-04-30T08:43:49.483Z,24.42
2019-04-30T08:44:48.514Z,24.53
2019-04-30T08:45:48.865Z,24.67
2019-04-30T08:46:49.181Z,24.67
2019-04-30T08:47:49.301Z,24.96
2019-04-30T08:48:51.658Z,25.02
2019-04-30T08:49:49.698Z,24.87
2019-04-30T08:50:49.386Z,24.80
2019-04-30T08:51:49.217Z,24.67
2019-04-30T08:52:49.573Z,24.73
2019-04-30T08:53:48.622Z,24.85
2019-04-30T08:54:49.433Z,25.13
2019-04-30T08:55:49.211Z,25.18
2019-04-30T08:56:47.497Z,25.32
2019-04-30T08:57:47.484Z,25.52
2019-04-30T08:58:49.077Z,25.55
2019-04-30T08:59:49.348Z,25.82
2019-04-30T09:00:48.625Z,25.76
2019-04-30T09:01:48.734Z,25.92
2019-04-30T09:02:49.222Z,25.83
2019-04-30T09:03:50.933Z,25.85
2019-04-30T09:04:49.307Z,25.70
2019-04-30T09:05:47.434Z,25.83
2019-04-30T09:06:49.018Z,26.02
2019-04-30T09:07:48.642Z,26.02
2019-04-30T09:08:48.972Z,26.09
2019-04-30T09:09:48.813Z,26.30
2019-04-30T09:10:49.057Z,26.50
2019-04-30T09:11:53.018Z,26.54
2019-04-30T09:12:49.517Z,26.73
2019-04-30T09:13:48.814Z,26.65
2019-04-30T09:14:49.123Z,26.63
2019-04-30T09:15:49.149Z,26.57
2019-04-30T09:16:49.481Z,26.57
2019-04-30T09:17:58.936Z,26.57
2019-04-30T09:18:49.342Z,26.37
2019-04-30T09:19:48.982Z,26.45
2019-04-30T09:20:49.371Z,26.60
2019-04-30T09:21:48.838Z,26.72
2019-04-30T09:22:49.133Z,26.39
2019-04-30T09:23:51.842Z,26.30
2019-04-30T09:24:49.532Z,26.28
2019-04-30T09:25:47.311Z,25.90
2019-04-30T09:26:49.205Z,25.73
2019-04-30T09:27:48.813Z,25.80
2019-04-30T09:28:49.244Z,25.51
2019-04-30T09:29:49.022Z,25.21
2019-04-30T09:30:48.449Z,25.24
2019-04-30T09:31:49.203Z,24.98
2019-04-30T09:32:47.275Z,25.18
2019-04-30T09:33:49.137Z,25.20
2019-04-30T09:34:48.799Z,25.42
2019-04-30T09:35:47.258Z,25.51
2019-04-30T09:36:49.002Z,25.69
2019-04-30T09:37:49.455Z,25.98
2019-04-30T09:38:48.567Z,26.15
2019-04-30T09:39:49.250Z,26.21
2019-04-30T09:40:47.234Z,26.12
2019-04-30T09:41:47.223Z,26.23
2019-04-30T09:42:48.745Z,26.15
2019-04-30T09:43:49.258Z,26.23
2019-04-30T09:44:49.044Z,26.26
2019-04-30T09:45:47.202Z,26.39
2019-04-30T09:46:48.925Z,26.15
2019-04-30T09:47:47.189Z,26.17
2019-04-30T09:48:47.186Z,26.17
2019-04-30T09:49:49.196Z,26.15
2019-04-30T09:50:49.041Z,25.87
2019-04-30T09:51:49.198Z,25.69
2019-04-30T09:52:47.198Z,25.82
2019-04-30T09:53:56.899Z,25.85
2019-04-30T09:54:47.276Z,26.10
2019-04-30T09:55:47.153Z,26.23
2019-04-30T09:56:49.230Z,26.30
2019-04-30T09:57:48.819Z,26.12
2019-04-30T09:58:49.150Z,26.10
2019-04-30T09:59:48.610Z,26.30
2019-04-30T10:00:48.497Z,26.50
2019-04-30T10:01:47.133Z,26.76
2019-04-30T10:02:48.898Z,26.99
2019-04-30T10:03:49.926Z,26.88
2019-04-30T10:04:47.668Z,26.69
2019-04-30T10:05:48.963Z,26.76
2019-04-30T10:06:49.903Z,26.87
2019-04-30T10:07:48.817Z,26.94
2019-04-30T10:08:50.568Z,26.97
2019-04-30T10:09:50.691Z,26.88
2019-04-30T10:10:48.634Z,26.89
2019-04-30T10:11:49.897Z,26.85
2019-04-30T10:12:49.173Z,26.89
2019-04-30T10:13:47.096Z,26.99
2019-04-30T10:14:47.527Z,26.70
2019-04-30T10:15:50.021Z,26.63
2019-04-30T10:16:47.093Z,26.54
2019-04-30T10:17:47.088Z,26.15
2019-04-30T10:18:47.084Z,26.25
2019-04-30T10:19:49.044Z,26.37
2019-04-30T10:20:47.084Z,26.47
2019-04-30T10:21:48.982Z,26.62
2019-04-30T10:22:47.087Z,26.50
2019-04-30T10:23:47.078Z,26.12
2019-04-30T10:24:47.076Z,25.98
2019-04-30T10:25:47.076Z,26.20
2019-04-30T10:26:47.078Z,26.29
2019-04-30T10:27:47.086Z,26.60
2019-04-30T10:28:47.100Z,26.77
2019-04-30T10:29:47.078Z,26.89
2019-04-30T10:30:47.072Z,27.31
2019-04-30T10:31:48.925Z,27.37
2019-04-30T10:32:49.941Z,27.37
2019-04-30T10:33:48.557Z,27.60
2019-04-30T10:34:47.078Z,27.59
2019-04-30T10:35:47.073Z,27.82
2019-04-30T10:36:49.348Z,27.90
2019-04-30T10:37:48.542Z,27.87
2019-04-30T10:38:47.070Z,27.96
2019-04-30T10:39:48.969Z,28.24
2019-04-30T10:40:48.753Z,28.36
2019-04-30T10:41:47.067Z,27.96
2019-04-30T10:42:48.770Z,27.77
2019-04-30T10:43:48.741Z,27.78
2019-04-30T10:44:47.067Z,27.87
2019-04-30T10:45:48.545Z,28.07
2019-04-30T10:46:47.069Z,28.25
2019-04-30T10:47:49.120Z,28.34
2019-04-30T10:48:47.072Z,28.71
2019-04-30T10:49:48.663Z,29.00
2019-04-30T10:50:49.104Z,29.05
2019-04-30T10:51:47.069Z,29.18
2019-04-30T10:52:49.063Z,29.34
2019-04-30T10:53:48.589Z,29.43
2019-04-30T10:54:47.072Z,29.78
2019-04-30T10:55:48.592Z,29.87
2019-04-30T10:56:49.082Z,29.87
2019-04-30T10:57:47.072Z,29.87
2019-04-30T10:58:47.074Z,30.19
2019-04-30T10:59:48.688Z,30.43
2019-04-30T11:00:47.073Z,30.76
2019-04-30T11:01:49.185Z,31.17
2019-04-30T11:02:47.078Z,31.36
2019-04-30T11:03:47.074Z,31.47
2019-04-30T11:04:47.079Z,31.51
2019-04-30T11:05:48.748Z,31.47
2019-04-30T11:06:47.080Z,31.53
2019-04-30T11:07:47.080Z,31.68
2019-04-30T11:08:47.080Z,31.75
2019-04-30T11:09:47.081Z,31.89
2019-04-30T11:10:47.076Z,31.75
2019-04-30T11:11:47.080Z,31.88
2019-04-30T11:12:47.084Z,32.15
2019-04-30T11:13:47.083Z,32.35
2019-04-30T11:14:47.404Z,32.65
2019-04-30T11:15:49.091Z,32.72
2019-04-30T11:16:47.269Z,32.74
2019-04-30T11:17:47.663Z,32.97
2019-04-30T11:18:47.360Z,32.56
2019-04-30T11:19:49.061Z,32.74
2019-04-30T11:20:47.350Z,32.33
2019-04-30T11:21:47.241Z,32.28
2019-04-30T11:22:47.297Z,32.22
2019-04-30T11:23:49.192Z,32.51
2019-04-30T11:24:58.971Z,33.19
2019-04-30T11:25:48.405Z,33.54
2019-04-30T11:26:49.687Z,33.71
2019-04-30T11:27:47.953Z,33.56
2019-04-30T11:28:47.338Z,33.78
2019-04-30T11:29:49.351Z,33.78
2019-04-30T11:30:47.424Z,33.84
2019-04-30T11:31:47.336Z,34.06
2019-04-30T11:32:47.369Z,34.08
2019-04-30T11:33:47.468Z,34.03
2019-04-30T11:34:47.107Z,34.12
2019-04-30T11:35:47.106Z,34.25
2019-04-30T11:36:47.110Z,34.35
2019-04-30T11:37:47.115Z,34.37
2019-04-30T11:38:48.765Z,34.35
2019-04-30T11:39:47.113Z,34.39
2019-04-30T11:40:48.626Z,34.24
2019-04-30T11:41:47.146Z,33.93
2019-04-30T11:42:47.122Z,33.69
2019-04-30T11:43:47.123Z,33.79
2019-04-30T11:44:48.807Z,33.87
2019-04-30T11:45:47.123Z,34.10
2019-04-30T11:46:47.126Z,34.09
2019-04-30T11:47:53.371Z,34.25
2019-04-30T11:48:48.880Z,34.49
2019-04-30T11:49:47.131Z,34.40
2019-04-30T11:50:47.137Z,34.43
2019-04-30T11:51:47.141Z,34.62
2019-04-30T11:52:47.137Z,34.70
2019-04-30T11:53:48.965Z,34.73
2019-04-30T11:54:51.662Z,35.04
2019-04-30T11:55:49.103Z,34.89
2019-04-30T11:56:50.262Z,34.80
2019-04-30T11:57:47.145Z,34.92
2019-04-30T11:58:48.781Z,34.72
2019-04-30T11:59:47.154Z,34.89
2019-04-30T12:00:47.155Z,35.19
2019-04-30T12:01:47.159Z,35.00
2019-04-30T12:02:50.546Z,35.07
2019-04-30T12:03:47.161Z,34.78
2019-04-30T12:04:47.573Z,34.42
2019-04-30T12:05:49.129Z,33.87
2019-04-30T12:06:47.167Z,33.75
2019-04-30T12:07:48.330Z,33.81
2019-04-30T12:08:49.137Z,33.93
2019-04-30T12:09:48.489Z,34.02
2019-04-30T12:10:47.173Z,34.39
2019-04-30T12:11:50.548Z,34.70
2019-04-30T12:12:48.694Z,34.94
2019-04-30T12:13:47.190Z,35.00
2019-04-30T12:14:47.185Z,34.91
2019-04-30T12:15:50.038Z,34.88
2019-04-30T12:16:47.189Z,35.00
2019-04-30T12:17:47.231Z,35.03
2019-04-30T12:18:47.196Z,35.10
2019-04-30T12:19:48.824Z,35.33
2019-04-30T12:20:47.211Z,35.55
2019-04-30T12:21:47.201Z,35.58
2019-04-30T12:22:49.214Z,35.68
2019-04-30T12:23:47.220Z,35.82
2019-04-30T12:24:48.872Z,35.53
2019-04-30T12:25:49.153Z,34.72
2019-04-30T12:26:48.910Z,34.37
2019-04-30T12:27:48.878Z,34.06
2019-04-30T12:28:47.218Z,33.90
2019-04-30T12:29:47.223Z,33.91
2019-04-30T12:30:48.948Z,34.22
2019-04-30T12:31:47.224Z,34.70
2019-04-30T12:32:49.217Z,34.77
2019-04-30T12:33:47.230Z,35.11
2019-04-30T12:34:47.234Z,35.23
2019-04-30T12:35:51.009Z,35.55
2019-04-30T12:36:47.240Z,35.70
2019-04-30T12:37:49.330Z,35.25
2019-04-30T12:38:47.242Z,35.41
2019-04-30T12:39:47.252Z,35.77
2019-04-30T12:40:47.254Z,35.89
2019-04-30T12:41:48.889Z,35.82
2019-04-30T12:42:48.680Z,35.70
2019-04-30T12:43:47.256Z,35.47
2019-04-30T12:44:47.260Z,35.41
2019-04-30T12:45:52.626Z,34.92
2019-04-30T12:46:48.625Z,34.88
2019-04-30T12:47:47.268Z,34.96
2019-04-30T12:48:49.386Z,35.02
2019-04-30T12:49:47.276Z,35.06
2019-04-30T12:50:49.137Z,35.38
2019-04-30T12:51:48.842Z,35.22
2019-04-30T12:52:49.401Z,35.07
2019-04-30T12:53:47.280Z,34.85
2019-04-30T12:54:47.280Z,34.50
2019-04-30T12:55:49.051Z,33.73
2019-04-30T12:56:47.294Z,33.53
2019-04-30T12:57:58.218Z,33.09
2019-04-30T12:58:47.286Z,32.87
2019-04-30T12:59:47.329Z,32.65
2019-04-30T13:00:49.091Z,32.33
2019-04-30T13:01:49.479Z,32.11
2019-04-30T13:02:47.289Z,31.84
2019-04-30T13:03:56.675Z,31.80
2019-04-30T13:04:49.143Z,31.62
2019-04-30T13:05:48.169Z,31.38